sensor_id;sensor_type;location;lat;lon;timestamp;P1;durP1;ratioP1;P2;durP2;ratioP2
21301;SDS011;10810;48.270;9.996;2023-05-10T00:01:12;2.57;;;1.70;;
21301;SDS011;10810;48.270;9.996;2023-05-10T00:03:48;4.00;;;1.70;;
21301;SDS011;10810;48.270;9.996;2023-05-10T00:06:36;3.23;;;1.70;;
21301;SDS011;10810;48.270;9.996;2023-05-10T00:09:23;4.53;;;1.80;;
21301;SDS011;10810;48.270;9.996;2023-05-10T00:12:38;3.63;;;1.70;;
21301;SDS011;10810;48.270;9.996;2023-05-10T00:15:11;3.27;;;1.83;;
21301;SDS011;10810;48.270;9.996;2023-05-10T00:17:43;3.03;;;1.60;;
21301;SDS011;10810;48.270;9.996;2023-05-10T00:20:15;2.63;;;1.57;;
21301;SDS011;10810;48.270;9.996;2023-05-10T00:22:56;2.13;;;1.53;;
21301;SDS011;10810;48.270;9.996;2023-05-10T00:25:28;2.93;;;1.83;;
21301;SDS011;10810;48.270;9.996;2023-05-10T00:28:37;3.47;;;1.80;;
21301;SDS011;10810;48.270;9.996;2023-05-10T00:31:23;3.57;;;1.63;;
21301;SDS011;10810;48.270;9.996;2023-05-10T00:37:29;2.67;;;1.70;;
21301;SDS011;10810;48.270;9.996;2023-05-10T00:40:07;2.67;;;1.63;;
21301;SDS011;10810;48.270;9.996;2023-05-10T00:42:34;3.80;;;1.77;;
21301;SDS011;10810;48.270;9.996;2023-05-10T00:45:44;3.10;;;1.70;;
21301;SDS011;10810;48.270;9.996;2023-05-10T00:48:50;2.20;;;1.30;;
21301;SDS011;10810;48.270;9.996;2023-05-10T00:51:15;3.03;;;1.47;;
21301;SDS011;10810;48.270;9.996;2023-05-10T00:53:51;2.13;;;1.30;;
21301;SDS011;10810;48.270;9.996;2023-05-10T00:56:44;1.97;;;1.30;;
21301;SDS011;10810;48.270;9.996;2023-05-10T00:59:14;2.50;;;1.30;;
21301;SDS011;10810;48.270;9.996;2023-05-10T01:01:45;1.80;;;1.13;;
21301;SDS011;10810;48.270;9.996;2023-05-10T01:04:17;2.53;;;1.43;;
21301;SDS011;10810;48.270;9.996;2023-05-10T01:07:06;4.60;;;1.20;;
21301;SDS011;10810;48.270;9.996;2023-05-10T01:09:45;2.23;;;1.10;;
21301;SDS011;10810;48.270;9.996;2023-05-10T01:12:24;1.20;;;0.80;;
21301;SDS011;10810;48.270;9.996;2023-05-10T01:15:32;1.43;;;0.90;;
21301;SDS011;10810;48.270;9.996;2023-05-10T01:18:07;2.70;;;0.90;;
21301;SDS011;10810;48.270;9.996;2023-05-10T01:21:31;1.10;;;0.80;;
21301;SDS011;10810;48.270;9.996;2023-05-10T01:24:31;1.23;;;0.70;;
21301;SDS011;10810;48.270;9.996;2023-05-10T01:27:44;2.10;;;0.70;;
21301;SDS011;10810;48.270;9.996;2023-05-10T01:30:46;0.60;;;0.60;;
21301;SDS011;10810;48.270;9.996;2023-05-10T01:33:33;0.60;;;0.53;;
21301;SDS011;10810;48.270;9.996;2023-05-10T01:36:06;1.60;;;0.63;;
21301;SDS011;10810;48.270;9.996;2023-05-10T01:39:15;0.83;;;0.60;;
21301;SDS011;10810;48.270;9.996;2023-05-10T01:42:14;0.53;;;0.50;;
21301;SDS011;10810;48.270;9.996;2023-05-10T01:45:06;0.43;;;0.40;;
21301;SDS011;10810;48.270;9.996;2023-05-10T01:48:15;0.87;;;0.60;;
21301;SDS011;10810;48.270;9.996;2023-05-10T01:51:19;1.30;;;0.63;;
21301;SDS011;10810;48.270;9.996;2023-05-10T01:53:59;0.90;;;0.50;;
21301;SDS011;10810;48.270;9.996;2023-05-10T01:56:46;1.07;;;0.67;;
21301;SDS011;10810;48.270;9.996;2023-05-10T01:59:26;0.50;;;0.50;;
21301;SDS011;10810;48.270;9.996;2023-05-10T02:02:24;0.90;;;0.53;;
21301;SDS011;10810;48.270;9.996;2023-05-10T02:05:19;0.70;;;0.50;;
21301;SDS011;10810;48.270;9.996;2023-05-10T02:07:53;0.50;;;0.50;;
21301;SDS011;10810;48.270;9.996;2023-05-10T02:13:50;2.20;;;0.57;;
21301;SDS011;10810;48.270;9.996;2023-05-10T02:17:26;0.97;;;0.60;;
21301;SDS011;10810;48.270;9.996;2023-05-10T02:19:51;0.70;;;0.60;;
21301;SDS011;10810;48.270;9.996;2023-05-10T02:22:47;1.27;;;0.53;;
21301;SDS011;10810;48.270;9.996;2023-05-10T02:28:30;0.73;;;0.60;;
21301;SDS011;10810;48.270;9.996;2023-05-10T02:31:15;0.90;;;0.60;;
21301;SDS011;10810;48.270;9.996;2023-05-10T02:34:23;0.90;;;0.50;;
21301;SDS011;10810;48.270;9.996;2023-05-10T02:37:55;0.70;;;0.43;;
21301;SDS011;10810;48.270;9.996;2023-05-10T02:40:19;0.83;;;0.60;;
21301;SDS011;10810;48.270;9.996;2023-05-10T02:42:57;1.27;;;0.57;;
21301;SDS011;10810;48.270;9.996;2023-05-10T02:45:40;1.40;;;0.70;;
21301;SDS011;10810;48.270;9.996;2023-05-10T02:52:24;1.70;;;0.73;;
21301;SDS011;10810;48.270;9.996;2023-05-10T02:54:31;2.50;;;0.70;;
21301;SDS011;10810;48.270;9.996;2023-05-10T02:57:25;1.03;;;0.60;;
21301;SDS011;10810;48.270;9.996;2023-05-10T03:03:34;0.60;;;0.50;;
21301;SDS011;10810;48.270;9.996;2023-05-10T03:12:27;0.40;;;0.40;;
21301;SDS011;10810;48.270;9.996;2023-05-10T03:21:41;0.40;;;0.40;;
21301;SDS011;10810;48.270;9.996;2023-05-10T03:24:27;0.40;;;0.40;;
21301;SDS011;10810;48.270;9.996;2023-05-10T03:27:01;2.67;;;0.40;;
21301;SDS011;10810;48.270;9.996;2023-05-10T03:30:18;0.60;;;0.60;;
21301;SDS011;10810;48.270;9.996;2023-05-10T03:33:08;0.73;;;0.57;;
21301;SDS011;10810;48.270;9.996;2023-05-10T03:35:52;0.47;;;0.40;;
21301;SDS011;10810;48.270;9.996;2023-05-10T03:38:26;0.50;;;0.40;;
21301;SDS011;10810;48.270;9.996;2023-05-10T03:41:06;1.60;;;0.40;;
21301;SDS011;10810;48.270;9.996;2023-05-10T03:43:55;0.40;;;0.40;;
21301;SDS011;10810;48.270;9.996;2023-05-10T03:46:28;0.40;;;0.40;;
21301;SDS011;10810;48.270;9.996;2023-05-10T03:49:07;0.40;;;0.40;;
21301;SDS011;10810;48.270;9.996;2023-05-10T03:51:55;0.60;;;0.50;;
21301;SDS011;10810;48.270;9.996;2023-05-10T04:00:35;16.67;;;5.77;;
21301;SDS011;10810;48.270;9.996;2023-05-10T04:03:12;15.80;;;6.80;;
21301;SDS011;10810;48.270;9.996;2023-05-10T04:05:42;10.47;;;4.53;;
21301;SDS011;10810;48.270;9.996;2023-05-10T04:08:23;5.30;;;2.80;;
21301;SDS011;10810;48.270;9.996;2023-05-10T04:11:06;18.27;;;8.27;;
21301;SDS011;10810;48.270;9.996;2023-05-10T04:20:11;17.87;;;8.90;;
21301;SDS011;10810;48.270;9.996;2023-05-10T04:22:53;7.87;;;4.50;;
21301;SDS011;10810;48.270;9.996;2023-05-10T04:29:01;1.10;;;0.90;;
21301;SDS011;10810;48.270;9.996;2023-05-10T04:31:43;2.00;;;1.33;;
21301;SDS011;10810;48.270;9.996;2023-05-10T04:34:49;4.33;;;1.37;;
21301;SDS011;10810;48.270;9.996;2023-05-10T04:37:27;1.83;;;1.50;;
21301;SDS011;10810;48.270;9.996;2023-05-10T04:40:09;2.80;;;1.40;;
21301;SDS011;10810;48.270;9.996;2023-05-10T04:46:29;1.40;;;1.00;;
21301;SDS011;10810;48.270;9.996;2023-05-10T04:49:24;2.20;;;1.27;;
21301;SDS011;10810;48.270;9.996;2023-05-10T05:06:08;2.67;;;1.93;;
21301;SDS011;10810;48.270;9.996;2023-05-10T05:09:06;1.60;;;1.10;;
21301;SDS011;10810;48.270;9.996;2023-05-10T05:12:34;1.00;;;0.70;;
21301;SDS011;10810;48.270;9.996;2023-05-10T05:26:22;1.30;;;0.70;;
21301;SDS011;10810;48.270;9.996;2023-05-10T05:27:43;1.00;;;0.73;;
21301;SDS011;10810;48.270;9.996;2023-05-10T05:34:53;1.27;;;0.70;;
21301;SDS011;10810;48.270;9.996;2023-05-10T05:36:22;1.40;;;0.80;;
21301;SDS011;10810;48.270;9.996;2023-05-10T05:45:11;1.20;;;0.80;;
21301;SDS011;10810;48.270;9.996;2023-05-10T05:47:44;1.30;;;0.80;;
21301;SDS011;10810;48.270;9.996;2023-05-10T05:50:26;1.67;;;0.77;;
21301;SDS011;10810;48.270;9.996;2023-05-10T05:53:26;1.60;;;0.70;;
21301;SDS011;10810;48.270;9.996;2023-05-10T05:55:50;3.53;;;0.90;;
21301;SDS011;10810;48.270;9.996;2023-05-10T05:58:33;1.23;;;0.70;;
21301;SDS011;10810;48.270;9.996;2023-05-10T06:01:01;1.20;;;0.80;;
21301;SDS011;10810;48.270;9.996;2023-05-10T06:03:46;0.87;;;0.70;;
21301;SDS011;10810;48.270;9.996;2023-05-10T06:06:23;1.10;;;0.73;;
21301;SDS011;10810;48.270;9.996;2023-05-10T06:08:52;1.33;;;0.80;;
21301;SDS011;10810;48.270;9.996;2023-05-10T06:11:35;1.40;;;0.80;;
21301;SDS011;10810;48.270;9.996;2023-05-10T06:20:17;1.23;;;0.90;;
21301;SDS011;10810;48.270;9.996;2023-05-10T06:22:44;4.10;;;1.00;;
21301;SDS011;10810;48.270;9.996;2023-05-10T06:25:11;1.60;;;1.07;;
21301;SDS011;10810;48.270;9.996;2023-05-10T06:27:41;2.90;;;1.00;;
21301;SDS011;10810;48.270;9.996;2023-05-10T06:30:08;3.20;;;0.90;;
21301;SDS011;10810;48.270;9.996;2023-05-10T06:32:38;5.33;;;1.33;;
21301;SDS011;10810;48.270;9.996;2023-05-10T06:35:05;0.93;;;0.80;;
21301;SDS011;10810;48.270;9.996;2023-05-10T06:37:34;1.20;;;0.90;;
21301;SDS011;10810;48.270;9.996;2023-05-10T06:40:01;1.57;;;0.80;;
21301;SDS011;10810;48.270;9.996;2023-05-10T06:42:29;1.10;;;0.70;;
21301;SDS011;10810;48.270;9.996;2023-05-10T06:44:56;0.97;;;0.70;;
21301;SDS011;10810;48.270;9.996;2023-05-10T06:47:23;1.60;;;0.90;;
21301;SDS011;10810;48.270;9.996;2023-05-10T06:49:50;1.50;;;1.03;;
21301;SDS011;10810;48.270;9.996;2023-05-10T06:52:17;0.80;;;0.80;;
21301;SDS011;10810;48.270;9.996;2023-05-10T06:54:46;2.13;;;0.80;;
21301;SDS011;10810;48.270;9.996;2023-05-10T06:57:13;1.47;;;0.90;;
21301;SDS011;10810;48.270;9.996;2023-05-10T06:59:40;1.10;;;0.80;;
21301;SDS011;10810;48.270;9.996;2023-05-10T07:02:07;1.00;;;0.80;;
21301;SDS011;10810;48.270;9.996;2023-05-10T07:04:36;1.27;;;0.90;;
21301;SDS011;10810;48.270;9.996;2023-05-10T07:07:03;1.07;;;0.73;;
21301;SDS011;10810;48.270;9.996;2023-05-10T07:09:30;1.20;;;0.90;;
21301;SDS011;10810;48.270;9.996;2023-05-10T07:11:58;1.40;;;0.80;;
21301;SDS011;10810;48.270;9.996;2023-05-10T07:14:26;1.00;;;0.90;;
21301;SDS011;10810;48.270;9.996;2023-05-10T07:16:53;1.27;;;0.87;;
21301;SDS011;10810;48.270;9.996;2023-05-10T07:19:21;1.30;;;0.80;;
21301;SDS011;10810;48.270;9.996;2023-05-10T07:21:48;1.43;;;1.10;;
21301;SDS011;10810;48.270;9.996;2023-05-10T07:24:36;1.63;;;1.10;;
21301;SDS011;10810;48.270;9.996;2023-05-10T07:27:16;1.73;;;1.27;;
21301;SDS011;10810;48.270;9.996;2023-05-10T07:29:53;1.17;;;0.90;;
21301;SDS011;10810;48.270;9.996;2023-05-10T07:32:34;1.47;;;0.90;;
21301;SDS011;10810;48.270;9.996;2023-05-10T07:35:07;1.30;;;0.90;;
21301;SDS011;10810;48.270;9.996;2023-05-10T07:37:52;1.23;;;0.80;;
21301;SDS011;10810;48.270;9.996;2023-05-10T07:40:55;1.50;;;0.90;;
21301;SDS011;10810;48.270;9.996;2023-05-10T07:44:01;1.40;;;0.90;;
21301;SDS011;10810;48.270;9.996;2023-05-10T07:53:25;0.90;;;0.70;;
21301;SDS011;10810;48.270;9.996;2023-05-10T07:56:21;1.63;;;1.00;;
21301;SDS011;10810;48.270;9.996;2023-05-10T08:02:11;0.97;;;0.73;;
21301;SDS011;10810;48.270;9.996;2023-05-10T08:05:22;1.27;;;0.90;;
21301;SDS011;10810;48.270;9.996;2023-05-10T08:11:20;1.07;;;0.70;;
21301;SDS011;10810;48.270;9.996;2023-05-10T08:13:48;1.30;;;0.80;;
21301;SDS011;10810;48.270;9.996;2023-05-10T08:16:19;1.73;;;1.10;;
21301;SDS011;10810;48.270;9.996;2023-05-10T08:19:21;3.03;;;1.30;;
21301;SDS011;10810;48.270;9.996;2023-05-10T08:25:27;6.07;;;2.90;;
21301;SDS011;10810;48.270;9.996;2023-05-10T08:28:22;5.67;;;3.43;;
21301;SDS011;10810;48.270;9.996;2023-05-10T08:30:52;2.47;;;1.30;;
21301;SDS011;10810;48.270;9.996;2023-05-10T08:33:44;1.17;;;0.80;;
21301;SDS011;10810;48.270;9.996;2023-05-10T08:36:31;2.50;;;0.90;;
21301;SDS011;10810;48.270;9.996;2023-05-10T08:38:58;2.97;;;0.80;;
21301;SDS011;10810;48.270;9.996;2023-05-10T08:41:25;1.20;;;0.80;;
21301;SDS011;10810;48.270;9.996;2023-05-10T08:43:53;2.37;;;1.17;;
21301;SDS011;10810;48.270;9.996;2023-05-10T08:46:23;4.67;;;1.97;;
21301;SDS011;10810;48.270;9.996;2023-05-10T08:52:27;1.70;;;1.10;;
21301;SDS011;10810;48.270;9.996;2023-05-10T08:55:25;1.93;;;0.70;;
21301;SDS011;10810;48.270;9.996;2023-05-10T08:58:34;4.03;;;1.80;;
21301;SDS011;10810;48.270;9.996;2023-05-10T09:01:36;7.80;;;2.80;;
21301;SDS011;10810;48.270;9.996;2023-05-10T09:17:09;1.50;;;0.90;;
21301;SDS011;10810;48.270;9.996;2023-05-10T09:19:39;1.30;;;0.80;;
21301;SDS011;10810;48.270;9.996;2023-05-10T09:22:06;0.70;;;0.63;;
21301;SDS011;10810;48.270;9.996;2023-05-10T09:25:20;2.33;;;1.00;;
21301;SDS011;10810;48.270;9.996;2023-05-10T09:37:04;0.90;;;0.50;;
21301;SDS011;10810;48.270;9.996;2023-05-10T09:40:07;0.90;;;0.60;;
21301;SDS011;10810;48.270;9.996;2023-05-10T09:42:51;1.13;;;0.60;;
21301;SDS011;10810;48.270;9.996;2023-05-10T09:45:19;3.17;;;0.60;;
21301;SDS011;10810;48.270;9.996;2023-05-10T09:47:49;1.33;;;0.70;;
21301;SDS011;10810;48.270;9.996;2023-05-10T09:53:52;1.20;;;0.60;;
21301;SDS011;10810;48.270;9.996;2023-05-10T09:56:57;0.60;;;0.40;;
21301;SDS011;10810;48.270;9.996;2023-05-10T09:59:26;1.70;;;0.60;;
21301;SDS011;10810;48.270;9.996;2023-05-10T10:02:33;2.57;;;0.50;;
21301;SDS011;10810;48.270;9.996;2023-05-10T10:05:03;1.47;;;0.53;;
21301;SDS011;10810;48.270;9.996;2023-05-10T10:08:04;0.50;;;0.50;;
21301;SDS011;10810;48.270;9.996;2023-05-10T10:10:49;0.70;;;0.50;;
21301;SDS011;10810;48.270;9.996;2023-05-10T10:13:32;0.77;;;0.57;;
21301;SDS011;10810;48.270;9.996;2023-05-10T10:16:58;2.20;;;0.60;;
21301;SDS011;10810;48.270;9.996;2023-05-10T10:20:10;1.83;;;0.60;;
21301;SDS011;10810;48.270;9.996;2023-05-10T10:23:08;0.50;;;0.50;;
21301;SDS011;10810;48.270;9.996;2023-05-10T10:25:35;0.57;;;0.50;;
21301;SDS011;10810;48.270;9.996;2023-05-10T10:28:10;0.93;;;0.57;;
21301;SDS011;10810;48.270;9.996;2023-05-10T10:30:54;0.60;;;0.40;;
21301;SDS011;10810;48.270;9.996;2023-05-10T10:33:54;0.90;;;0.50;;
21301;SDS011;10810;48.270;9.996;2023-05-10T10:36:49;0.50;;;0.43;;
21301;SDS011;10810;48.270;9.996;2023-05-10T10:39:16;0.60;;;0.50;;
21301;SDS011;10810;48.270;9.996;2023-05-10T10:41:49;0.50;;;0.50;;
21301;SDS011;10810;48.270;9.996;2023-05-10T10:44:24;2.53;;;1.03;;
21301;SDS011;10810;48.270;9.996;2023-05-10T10:47:04;0.70;;;0.57;;
21301;SDS011;10810;48.270;9.996;2023-05-10T10:49:43;1.20;;;0.80;;
21301;SDS011;10810;48.270;9.996;2023-05-10T10:52:20;1.07;;;0.70;;
21301;SDS011;10810;48.270;9.996;2023-05-10T10:54:58;0.83;;;0.70;;
21301;SDS011;10810;48.270;9.996;2023-05-10T10:57:27;1.40;;;0.83;;
21301;SDS011;10810;48.270;9.996;2023-05-10T11:02:53;1.00;;;0.80;;
21301;SDS011;10810;48.270;9.996;2023-05-10T11:05:23;2.83;;;0.60;;
21301;SDS011;10810;48.270;9.996;2023-05-10T11:08:13;0.73;;;0.70;;
21301;SDS011;10810;48.270;9.996;2023-05-10T11:11:01;1.13;;;0.73;;
21301;SDS011;10810;48.270;9.996;2023-05-10T11:13:32;0.93;;;0.63;;
21301;SDS011;10810;48.270;9.996;2023-05-10T11:16:15;1.80;;;0.80;;
21301;SDS011;10810;48.270;9.996;2023-05-10T11:18:52;1.00;;;0.73;;
21301;SDS011;10810;48.270;9.996;2023-05-10T11:21:26;1.07;;;0.70;;
21301;SDS011;10810;48.270;9.996;2023-05-10T11:23:57;1.70;;;0.60;;
21301;SDS011;10810;48.270;9.996;2023-05-10T11:26:26;3.90;;;0.80;;
21301;SDS011;10810;48.270;9.996;2023-05-10T11:28:56;0.80;;;0.60;;
21301;SDS011;10810;48.270;9.996;2023-05-10T11:31:26;2.27;;;0.70;;
21301;SDS011;10810;48.270;9.996;2023-05-10T11:34:08;0.87;;;0.60;;
21301;SDS011;10810;48.270;9.996;2023-05-10T11:37:18;1.43;;;0.60;;
21301;SDS011;10810;48.270;9.996;2023-05-10T11:41:11;1.43;;;0.70;;
21301;SDS011;10810;48.270;9.996;2023-05-10T11:44:45;1.00;;;0.60;;
21301;SDS011;10810;48.270;9.996;2023-05-10T11:47:06;1.83;;;0.50;;
21301;SDS011;10810;48.270;9.996;2023-05-10T11:49:26;0.97;;;0.57;;
21301;SDS011;10810;48.270;9.996;2023-05-10T11:52:44;0.80;;;0.70;;
21301;SDS011;10810;48.270;9.996;2023-05-10T11:55:38;0.60;;;0.57;;
21301;SDS011;10810;48.270;9.996;2023-05-10T11:59:06;0.80;;;0.60;;
21301;SDS011;10810;48.270;9.996;2023-05-10T12:01:43;1.00;;;0.70;;
21301;SDS011;10810;48.270;9.996;2023-05-10T12:04:56;0.80;;;0.60;;
21301;SDS011;10810;48.270;9.996;2023-05-10T12:07:37;1.90;;;1.10;;
21301;SDS011;10810;48.270;9.996;2023-05-10T12:10:47;2.00;;;0.80;;
21301;SDS011;10810;48.270;9.996;2023-05-10T12:13:18;1.90;;;0.90;;
21301;SDS011;10810;48.270;9.996;2023-05-10T12:15:51;1.33;;;0.90;;
21301;SDS011;10810;48.270;9.996;2023-05-10T12:18:31;1.00;;;0.73;;
21301;SDS011;10810;48.270;9.996;2023-05-10T12:21:23;3.00;;;0.80;;
21301;SDS011;10810;48.270;9.996;2023-05-10T12:23:59;2.87;;;0.80;;
21301;SDS011;10810;48.270;9.996;2023-05-10T12:26:36;1.40;;;1.00;;
21301;SDS011;10810;48.270;9.996;2023-05-10T12:29:24;3.13;;;1.00;;
21301;SDS011;10810;48.270;9.996;2023-05-10T12:31:59;4.90;;;1.03;;
21301;SDS011;10810;48.270;9.996;2023-05-10T12:34:30;1.07;;;0.90;;
21301;SDS011;10810;48.270;9.996;2023-05-10T12:37:25;1.43;;;0.90;;
21301;SDS011;10810;48.270;9.996;2023-05-10T12:39:57;1.20;;;0.80;;
21301;SDS011;10810;48.270;9.996;2023-05-10T12:45:28;1.90;;;1.00;;
21301;SDS011;10810;48.270;9.996;2023-05-10T12:48:00;0.73;;;0.70;;
21301;SDS011;10810;48.270;9.996;2023-05-10T12:50:44;1.00;;;0.80;;
21301;SDS011;10810;48.270;9.996;2023-05-10T12:53:18;1.53;;;0.80;;
21301;SDS011;10810;48.270;9.996;2023-05-10T12:55:48;1.07;;;0.80;;
21301;SDS011;10810;48.270;9.996;2023-05-10T12:58:32;1.37;;;0.90;;
21301;SDS011;10810;48.270;9.996;2023-05-10T13:01:00;1.47;;;0.80;;
21301;SDS011;10810;48.270;9.996;2023-05-10T13:03:33;1.40;;;0.80;;
21301;SDS011;10810;48.270;9.996;2023-05-10T13:06:01;2.10;;;0.93;;
21301;SDS011;10810;48.270;9.996;2023-05-10T13:08:29;1.70;;;0.93;;
21301;SDS011;10810;48.270;9.996;2023-05-10T13:10:59;1.60;;;0.70;;
21301;SDS011;10810;48.270;9.996;2023-05-10T13:13:31;1.50;;;0.80;;
21301;SDS011;10810;48.270;9.996;2023-05-10T13:15:58;1.47;;;0.70;;
21301;SDS011;10810;48.270;9.996;2023-05-10T13:18:25;3.90;;;1.13;;
21301;SDS011;10810;48.270;9.996;2023-05-10T13:20:52;0.93;;;0.70;;
21301;SDS011;10810;48.270;9.996;2023-05-10T13:23:20;1.63;;;0.80;;
21301;SDS011;10810;48.270;9.996;2023-05-10T13:25:49;1.27;;;0.93;;
21301;SDS011;10810;48.270;9.996;2023-05-10T13:28:17;1.23;;;0.90;;
21301;SDS011;10810;48.270;9.996;2023-05-10T13:31:05;1.53;;;0.90;;
21301;SDS011;10810;48.270;9.996;2023-05-10T13:33:34;1.63;;;0.80;;
21301;SDS011;10810;48.270;9.996;2023-05-10T13:36:13;3.07;;;0.87;;
21301;SDS011;10810;48.270;9.996;2023-05-10T13:39:00;1.53;;;0.90;;
21301;SDS011;10810;48.270;9.996;2023-05-10T13:41:32;2.17;;;0.80;;
21301;SDS011;10810;48.270;9.996;2023-05-10T13:44:01;1.67;;;0.90;;
21301;SDS011;10810;48.270;9.996;2023-05-10T13:46:43;1.50;;;0.90;;
21301;SDS011;10810;48.270;9.996;2023-05-10T13:52:00;4.30;;;0.60;;
21301;SDS011;10810;48.270;9.996;2023-05-10T13:54:31;1.43;;;0.90;;
21301;SDS011;10810;48.270;9.996;2023-05-10T13:57:29;2.30;;;1.00;;
21301;SDS011;10810;48.270;9.996;2023-05-10T14:02:37;1.93;;;1.30;;
21301;SDS011;10810;48.270;9.996;2023-05-10T14:05:13;1.67;;;1.00;;
21301;SDS011;10810;48.270;9.996;2023-05-10T14:07:45;2.57;;;1.00;;
21301;SDS011;10810;48.270;9.996;2023-05-10T14:10:14;1.20;;;0.90;;
21301;SDS011;10810;48.270;9.996;2023-05-10T14:12:43;1.60;;;1.20;;
21301;SDS011;10810;48.270;9.996;2023-05-10T14:15:14;1.77;;;1.10;;
21301;SDS011;10810;48.270;9.996;2023-05-10T14:17:41;5.03;;;1.47;;
21301;SDS011;10810;48.270;9.996;2023-05-10T14:20:08;2.03;;;1.20;;
21301;SDS011;10810;48.270;9.996;2023-05-10T14:22:36;2.97;;;1.30;;
21301;SDS011;10810;48.270;9.996;2023-05-10T14:25:07;1.80;;;1.30;;
21301;SDS011;10810;48.270;9.996;2023-05-10T14:27:35;2.70;;;1.33;;
21301;SDS011;10810;48.270;9.996;2023-05-10T14:30:02;2.03;;;0.97;;
21301;SDS011;10810;48.270;9.996;2023-05-10T14:32:31;2.23;;;0.87;;
21301;SDS011;10810;48.270;9.996;2023-05-10T14:35:02;1.73;;;1.00;;
21301;SDS011;10810;48.270;9.996;2023-05-10T14:37:30;2.57;;;1.00;;
21301;SDS011;10810;48.270;9.996;2023-05-10T14:39:57;2.07;;;1.23;;
21301;SDS011;10810;48.270;9.996;2023-05-10T14:42:34;3.57;;;1.47;;
21301;SDS011;10810;48.270;9.996;2023-05-10T14:45:15;2.33;;;1.60;;
21301;SDS011;10810;48.270;9.996;2023-05-10T14:47:49;4.07;;;2.00;;
21301;SDS011;10810;48.270;9.996;2023-05-10T14:54:26;2.47;;;1.40;;
21301;SDS011;10810;48.270;9.996;2023-05-10T14:57:00;2.43;;;1.30;;
21301;SDS011;10810;48.270;9.996;2023-05-10T15:12:51;3.73;;;1.40;;
21301;SDS011;10810;48.270;9.996;2023-05-10T15:15:22;2.50;;;1.20;;
21301;SDS011;10810;48.270;9.996;2023-05-10T15:17:49;2.47;;;1.20;;
21301;SDS011;10810;48.270;9.996;2023-05-10T15:20:16;4.17;;;1.10;;
21301;SDS011;10810;48.270;9.996;2023-05-10T15:22:43;1.67;;;1.07;;
21301;SDS011;10810;48.270;9.996;2023-05-10T15:25:10;1.30;;;1.00;;
21301;SDS011;10810;48.270;9.996;2023-05-10T15:27:42;3.63;;;1.30;;
21301;SDS011;10810;48.270;9.996;2023-05-10T15:30:18;3.10;;;1.10;;
21301;SDS011;10810;48.270;9.996;2023-05-10T15:32:55;2.50;;;1.00;;
21301;SDS011;10810;48.270;9.996;2023-05-10T15:37:55;2.67;;;1.10;;
21301;SDS011;10810;48.270;9.996;2023-05-10T15:38:44;4.20;;;1.10;;
21301;SDS011;10810;48.270;9.996;2023-05-10T15:41:11;1.70;;;1.00;;
21301;SDS011;10810;48.270;9.996;2023-05-10T15:53:48;1.30;;;1.00;;
21301;SDS011;10810;48.270;9.996;2023-05-10T15:56:05;3.07;;;1.10;;
21301;SDS011;10810;48.270;9.996;2023-05-10T15:58:33;2.40;;;1.13;;
21301;SDS011;10810;48.270;9.996;2023-05-10T16:17:38;3.27;;;1.37;;
21301;SDS011;10810;48.270;9.996;2023-05-10T16:20:23;3.30;;;1.40;;
21301;SDS011;10810;48.270;9.996;2023-05-10T16:24:28;2.70;;;1.27;;
21301;SDS011;10810;48.270;9.996;2023-05-10T16:27:04;4.30;;;1.43;;
21301;SDS011;10810;48.270;9.996;2023-05-10T16:58:42;5.23;;;1.40;;
21301;SDS011;10810;48.270;9.996;2023-05-10T17:01:13;5.87;;;1.70;;
21301;SDS011;10810;48.270;9.996;2023-05-10T17:06:34;2.87;;;1.43;;
21301;SDS011;10810;48.270;9.996;2023-05-10T17:37:34;3.33;;;1.40;;
21301;SDS011;10810;48.270;9.996;2023-05-10T17:49:31;4.13;;;1.40;;
21301;SDS011;10810;48.270;9.996;2023-05-10T17:55:51;3.00;;;1.33;;
21301;SDS011;10810;48.270;9.996;2023-05-10T17:58:45;2.10;;;1.47;;
21301;SDS011;10810;48.270;9.996;2023-05-10T18:01:17;5.33;;;1.67;;
21301;SDS011;10810;48.270;9.996;2023-05-10T18:03:46;3.43;;;1.20;;
21301;SDS011;10810;48.270;9.996;2023-05-10T18:38:47;2.93;;;1.50;;
21301;SDS011;10810;48.270;9.996;2023-05-10T18:52:06;1.67;;;0.83;;
21301;SDS011;10810;48.270;9.996;2023-05-10T20:06:09;2.60;;;0.63;;
21301;SDS011;10810;48.270;9.996;2023-05-10T20:12:17;1.80;;;0.70;;
21301;SDS011;10810;48.270;9.996;2023-05-10T20:15:27;1.20;;;0.70;;
21301;SDS011;10810;48.270;9.996;2023-05-10T20:18:38;1.43;;;0.90;;
21301;SDS011;10810;48.270;9.996;2023-05-10T20:25:18;2.10;;;0.90;;
21301;SDS011;10810;48.270;9.996;2023-05-10T20:28:42;0.80;;;0.73;;
21301;SDS011;10810;48.270;9.996;2023-05-10T20:31:13;1.00;;;0.80;;
21301;SDS011;10810;48.270;9.996;2023-05-10T21:00:57;1.77;;;1.00;;
21301;SDS011;10810;48.270;9.996;2023-05-10T21:03:58;2.67;;;1.03;;
21301;SDS011;10810;48.270;9.996;2023-05-10T21:09:56;1.60;;;1.00;;
21301;SDS011;10810;48.270;9.996;2023-05-10T21:12:26;4.30;;;1.20;;
21301;SDS011;10810;48.270;9.996;2023-05-10T21:16:31;1.37;;;1.10;;
21301;SDS011;10810;48.270;9.996;2023-05-10T21:17:51;1.40;;;1.00;;
21301;SDS011;10810;48.270;9.996;2023-05-10T21:20:23;1.90;;;1.10;;
21301;SDS011;10810;48.270;9.996;2023-05-10T21:22:52;1.73;;;1.03;;
21301;SDS011;10810;48.270;9.996;2023-05-10T21:25:20;1.23;;;0.93;;
21301;SDS011;10810;48.270;9.996;2023-05-10T21:27:48;1.70;;;0.90;;
21301;SDS011;10810;48.270;9.996;2023-05-10T21:30:31;2.30;;;1.20;;
21301;SDS011;10810;48.270;9.996;2023-05-10T21:33:00;3.40;;;1.30;;
21301;SDS011;10810;48.270;9.996;2023-05-10T21:35:28;2.60;;;1.40;;
21301;SDS011;10810;48.270;9.996;2023-05-10T21:37:59;2.43;;;1.17;;
21301;SDS011;10810;48.270;9.996;2023-05-10T21:40:27;2.63;;;1.10;;
21301;SDS011;10810;48.270;9.996;2023-05-10T21:43:12;4.20;;;1.23;;
21301;SDS011;10810;48.270;9.996;2023-05-10T21:45:47;3.03;;;1.30;;
21301;SDS011;10810;48.270;9.996;2023-05-10T21:48:32;3.23;;;1.20;;
21301;SDS011;10810;48.270;9.996;2023-05-10T21:51:09;2.13;;;1.30;;
21301;SDS011;10810;48.270;9.996;2023-05-10T21:53:52;7.57;;;1.20;;
21301;SDS011;10810;48.270;9.996;2023-05-10T21:56:19;2.00;;;1.13;;
21301;SDS011;10810;48.270;9.996;2023-05-10T21:59:05;1.67;;;0.90;;
21301;SDS011;10810;48.270;9.996;2023-05-10T22:01:52;2.83;;;1.30;;
21301;SDS011;10810;48.270;9.996;2023-05-10T22:07:29;1.97;;;1.03;;
21301;SDS011;10810;48.270;9.996;2023-05-10T22:10:09;1.53;;;1.10;;
21301;SDS011;10810;48.270;9.996;2023-05-10T22:12:43;1.63;;;1.10;;
21301;SDS011;10810;48.270;9.996;2023-05-10T22:15:12;2.20;;;1.17;;
21301;SDS011;10810;48.270;9.996;2023-05-10T22:17:59;2.13;;;1.20;;
21301;SDS011;10810;48.270;9.996;2023-05-10T22:20:43;1.60;;;1.03;;
21301;SDS011;10810;48.270;9.996;2023-05-10T22:23:20;1.20;;;0.90;;
21301;SDS011;10810;48.270;9.996;2023-05-10T22:25:57;2.10;;;1.00;;
21301;SDS011;10810;48.270;9.996;2023-05-10T22:28:34;2.80;;;1.20;;
21301;SDS011;10810;48.270;9.996;2023-05-10T22:31:35;2.00;;;1.17;;
21301;SDS011;10810;48.270;9.996;2023-05-10T22:34:05;5.60;;;1.50;;
21301;SDS011;10810;48.270;9.996;2023-05-10T22:36:59;1.40;;;1.03;;
21301;SDS011;10810;48.270;9.996;2023-05-10T22:39:43;1.77;;;1.10;;
21301;SDS011;10810;48.270;9.996;2023-05-10T22:42:41;4.63;;;1.07;;
21301;SDS011;10810;48.270;9.996;2023-05-10T22:45:41;1.70;;;1.10;;
21301;SDS011;10810;48.270;9.996;2023-05-10T22:48:10;2.93;;;1.17;;
21301;SDS011;10810;48.270;9.996;2023-05-10T22:50:52;2.03;;;1.00;;
21301;SDS011;10810;48.270;9.996;2023-05-10T22:53:35;2.33;;;1.00;;
21301;SDS011;10810;48.270;9.996;2023-05-10T22:56:16;2.30;;;1.27;;
21301;SDS011;10810;48.270;9.996;2023-05-10T22:58:51;2.70;;;1.20;;
21301;SDS011;10810;48.270;9.996;2023-05-10T23:01:50;3.93;;;1.03;;
21301;SDS011;10810;48.270;9.996;2023-05-10T23:04:15;1.97;;;1.10;;
21301;SDS011;10810;48.270;9.996;2023-05-10T23:06:56;3.13;;;1.27;;
21301;SDS011;10810;48.270;9.996;2023-05-10T23:09:35;1.70;;;1.10;;